Time;durP1;ratioP1;P1;durP2;ratioP2;P2;SDS_P1;SDS_P2;PMS_P1;PMS_P2;Temp;Humidity;BMP_temperature;BMP_pressure;BME280_temperature;BME280_humidity;BME280_pressure;Samples;Min_cycle;Max_cycle;Signal;HPM_P1;HPM_P2
2022/09/27 00:01:44;;;;;;;7.13;2.17;;;;;;;9.48;100.00;99528.75;5018854;28;20218;-74
2022/09/27 00:04:10;;;;;;;9.57;2.33;;;;;;;9.48;100.00;99533.31;5016800;28;20121;-73
2022/09/27 00:06:36;;;;;;;6.88;1.90;;;;;;;9.47;100.00;99523.59;5023054;28;20037;-70
2022/09/27 00:09:01;;;;;;;7.40;1.65;;;;;;;9.46;100.00;99521.97;5036396;28;20370;-73
2022/09/27 00:11:30;;;;;;;8.52;1.92;;;;;;;9.46;100.00;99532.75;5027016;28;20060;-74
2022/09/27 00:13:57;;;;;;;7.00;1.60;;;;;;;9.47;100.00;99535.22;5016532;28;20025;-71
2022/09/27 00:16:25;;;;;;;6.82;2.10;;;;;;;9.47;100.00;99537.91;5016373;28;20373;-76
2022/09/27 00:18:51;;;;;;;6.15;1.65;;;;;;;9.48;100.00;99541.41;5016032;28;20025;-71
2022/09/27 00:21:16;;;;;;;6.75;1.83;;;;;;;9.48;100.00;99538.72;5016608;28;20366;-74
2022/09/27 00:23:42;;;;;;;6.47;1.80;;;;;;;9.46;100.00;99548.97;5031646;28;20022;-71
2022/09/27 00:26:11;;;;;;;4.90;1.70;;;;;;;9.46;100.00;99546.25;5016063;28;20365;-71
2022/09/27 00:28:37;;;;;;;7.65;1.80;;;;;;;9.46;100.00;99546.25;5021559;28;20021;-71
2022/09/27 00:31:02;;;;;;;7.70;1.88;;;;;;;9.45;100.00;99566.22;5035768;28;20049;-72
2022/09/27 00:33:28;;;;;;;5.22;1.50;;;;;;;9.42;100.00;99588.31;5019113;28;20463;-71
2022/09/27 00:35:53;;;;;;;5.18;1.88;;;;;;;9.40;100.00;99578.59;5015930;28;20037;-74
2022/09/27 00:38:19;;;;;;;5.45;1.95;;;;;;;9.43;100.00;99571.06;5029975;28;20032;-72
2022/09/27 00:40:45;;;;;;;5.80;1.42;;;;;;;9.40;100.00;99570.50;5035485;28;20025;-71
2022/09/27 00:43:20;;;;;;;3.25;1.40;;;;;;;9.44;100.00;99567.31;5034326;28;20460;-72
2022/09/27 00:45:56;;;;;;;4.18;1.27;;;;;;;9.49;100.00;99570.06;5035442;28;20033;-75
2022/09/27 00:48:26;;;;;;;5.15;1.40;;;;;;;9.45;100.00;99574.31;5028811;28;20076;-70
2022/09/27 00:50:56;;;;;;;9.35;1.48;;;;;;;9.44;100.00;99562.72;5031893;28;20564;-75
2022/09/27 00:53:30;;;;;;;5.72;1.40;;;;;;;9.44;100.00;99561.91;5028842;28;20127;-71
2022/09/27 00:56:01;;;;;;;4.65;1.70;;;;;;;9.40;100.00;99557.00;5016260;28;20033;-72
2022/09/27 00:58:36;;;;;;;10.52;2.30;;;;;;;9.43;100.00;99560.25;5016335;28;20038;-75
2022/09/27 01:01:06;;;;;;;8.15;1.48;;;;;;;9.37;100.00;99562.88;5014466;28;20370;-75
2022/09/27 01:03:41;;;;;;;7.00;1.90;;;;;;;9.38;100.00;99559.13;5024454;28;20049;-70
2022/09/27 01:06:09;;;;;;;7.30;1.67;;;;;;;9.38;100.00;99556.41;5032424;28;20076;-70
2022/09/27 01:08:34;;;;;;;4.32;1.40;;;;;;;9.37;100.00;99554.78;5037756;28;20021;-73
2022/09/27 01:11:34;;;;;;;4.80;1.30;;;;;;;9.32;100.00;99560.13;5034316;28;20479;-71
2022/09/27 01:14:31;;;;;;;6.43;1.33;;;;;;;9.32;100.00;99564.69;5034292;28;20087;-71
2022/09/27 01:17:34;;;;;;;9.25;1.27;;;;;;;9.30;100.00;99556.84;5030177;28;20022;-73
2022/09/27 01:20:30;;;;;;;5.97;1.23;;;;;;;9.31;100.00;99558.47;5032244;28;20067;-72
2022/09/27 01:23:20;;;;;;;5.97;1.10;;;;;;;9.29;100.00;99559.81;5034996;28;20029;-73
2022/09/27 01:25:57;;;;;;;2.25;0.90;;;;;;;9.30;100.00;99574.91;5035411;28;20030;-72
2022/09/27 01:28:56;;;;;;;5.63;1.08;;;;;;;9.30;100.00;99567.66;5033778;28;20526;-71
2022/09/27 01:31:49;;;;;;;5.90;1.42;;;;;;;9.28;100.00;99572.47;5035118;28;20472;-75
2022/09/27 01:34:24;;;;;;;5.22;1.10;;;;;;;9.25;100.00;99574.84;5022387;28;20029;-70
2022/09/27 01:36:57;;;;;;;2.70;1.05;;;;;;;9.22;100.00;99581.56;5026152;28;20041;-74
2022/09/27 01:39:49;;;;;;;3.53;1.20;;;;;;;9.22;100.00;99585.09;5015193;28;20068;-72
2022/09/27 01:42:27;;;;;;;4.83;1.37;;;;;;;9.22;100.00;99586.94;5015201;28;20025;-73
2022/09/27 01:45:03;;;;;;;7.97;1.30;;;;;;;9.14;100.00;99579.28;5013516;28;20025;-70
2022/09/27 01:47:39;;;;;;;6.57;0.98;;;;;;;9.12;100.00;99582.22;5014937;28;20033;-72
2022/09/27 01:50:10;;;;;;;4.65;1.50;;;;;;;9.10;100.00;99586.22;5017197;28;20426;-71
2022/09/27 01:52:40;;;;;;;5.97;1.55;;;;;;;9.08;100.00;99591.88;5034730;28;20033;-75
2022/09/27 01:55:12;;;;;;;3.83;1.10;;;;;;;9.05;100.00;99590.47;5034209;28;20064;-72
2022/09/27 01:57:42;;;;;;;3.90;0.95;;;;;;;9.04;100.00;99607.75;5034245;28;20029;-71
2022/09/27 02:00:10;;;;;;;3.58;1.05;;;;;;;9.04;100.00;99598.81;5028932;28;20022;-71
2022/09/27 02:02:41;;;;;;;3.83;1.20;;;;;;;9.03;100.00;99597.19;5011994;28;20022;-75
2022/09/27 02:05:10;;;;;;;9.50;1.48;;;;;;;9.03;100.00;99589.91;5013820;28;20025;-74
2022/09/27 02:07:55;;;;;;;6.63;1.02;;;;;;;8.96;100.00;99586.56;5029814;28;20022;-72
2022/09/27 02:10:24;;;;;;;3.63;0.90;;;;;;;8.93;100.00;99587.03;5014390;28;20064;-70
2022/09/27 02:13:01;;;;;;;8.55;1.45;;;;;;;8.91;100.00;99597.28;5014274;28;20029;-70
2022/09/27 02:15:34;;;;;;;3.15;0.80;;;;;;;8.92;100.00;99603.47;5014290;28;20026;-73
2022/09/27 02:18:06;;;;;;;3.53;0.93;;;;;;;8.91;100.00;99602.66;5012606;28;20025;-71
2022/09/27 02:20:43;;;;;;;5.22;1.10;;;;;;;8.92;100.00;99592.69;5013829;28;20123;-71
2022/09/27 02:23:17;;;;;;;4.30;1.00;;;;;;;8.91;100.00;99593.75;5024055;28;20159;-74
2022/09/27 02:25:50;;;;;;;6.70;0.98;;;;;;;8.94;100.00;99593.28;5029974;28;20021;-70
2022/09/27 02:28:34;;;;;;;5.53;1.20;;;;;;;8.87;100.00;99591.53;5032579;28;20023;-70
2022/09/27 02:31:00;;;;;;;3.50;1.15;;;;;;;8.85;100.00;99590.97;5032384;28;20032;-74
2022/09/27 02:33:30;;;;;;;6.70;1.10;;;;;;;8.85;100.00;99592.88;5034018;28;20025;-70
2022/09/27 02:35:55;;;;;;;7.47;1.15;;;;;;;8.83;100.00;99594.97;5033670;28;20075;-72
2022/09/27 02:38:21;;;;;;;5.05;1.15;;;;;;;8.84;100.00;99618.19;5031514;28;20465;-74
2022/09/27 02:40:46;;;;;;;5.50;1.30;;;;;;;8.79;100.00;99610.84;5032205;28;20373;-73
2022/09/27 02:43:15;;;;;;;5.53;1.55;;;;;;;8.80;100.00;99608.94;5033269;28;20021;-75
2022/09/27 02:45:52;;;;;;;5.57;1.20;;;;;;;8.75;100.00;99609.69;5031502;28;20029;-74
2022/09/27 02:48:30;;;;;;;3.40;1.10;;;;;;;8.73;100.00;99608.31;5033444;28;20075;-71
2022/09/27 02:51:08;;;;;;;4.32;1.10;;;;;;;8.67;100.00;99608.19;5033418;28;20105;-70
2022/09/27 02:53:51;;;;;;;5.35;1.08;;;;;;;8.66;100.00;99606.56;5032457;28;20090;-71
2022/09/27 02:56:43;;;;;;;6.15;1.45;;;;;;;8.68;100.00;99609.84;5033533;28;20056;-75
2022/09/27 02:59:34;;;;;;;5.43;1.23;;;;;;;8.65;100.00;99606.78;5031821;28;20030;-70
2022/09/27 03:02:18;;;;;;;4.13;1.30;;;;;;;8.58;100.00;99608.84;5030436;28;20025;-73
2022/09/27 03:04:55;;;;;;;4.45;1.10;;;;;;;8.60;100.00;99604.03;5033036;28;20021;-74
2022/09/27 03:07:21;;;;;;;6.55;1.23;;;;;;;8.53;100.00;99598.78;5030287;28;20029;-72
2022/09/27 03:09:50;;;;;;;4.28;1.15;;;;;;;8.50;100.00;99592.00;5032938;28;20369;-69
2022/09/27 03:12:21;;;;;;;6.03;1.48;;;;;;;8.47;100.00;99592.47;5031793;28;20029;-72
2022/09/27 03:14:48;;;;;;;7.30;1.70;;;;;;;8.50;100.00;99593.88;5033242;28;20104;-71
2022/09/27 03:17:14;;;;;;;5.72;1.48;;;;;;;8.48;100.00;99593.28;5032670;28;20060;-70
2022/09/27 03:19:39;;;;;;;6.35;1.40;;;;;;;8.47;100.00;99588.94;5032785;28;20104;-71
2022/09/27 03:22:04;;;;;;;5.90;1.30;;;;;;;8.46;100.00;99588.13;5030761;28;20451;-71
2022/09/27 03:24:29;;;;;;;5.22;1.30;;;;;;;8.48;100.00;99598.69;5032911;28;20044;-75
2022/09/27 03:26:55;;;;;;;5.28;1.38;;;;;;;8.43;100.00;99606.66;5032834;28;20026;-72
2022/09/27 03:29:20;;;;;;;6.07;1.30;;;;;;;8.46;100.00;99611.59;5031185;28;20067;-73
2022/09/27 03:31:45;;;;;;;6.07;1.35;;;;;;;8.43;100.00;99606.66;5011546;28;20030;-74
2022/09/27 03:34:11;;;;;;;4.97;1.35;;;;;;;8.46;100.00;99607.00;5012875;28;20030;-72
2022/09/27 03:36:36;;;;;;;7.30;1.42;;;;;;;8.44;100.00;99613.69;5012242;28;20172;-75
2022/09/27 03:39:02;;;;;;;12.40;1.52;;;;;;;8.42;100.00;99610.41;5012423;28;20469;-72
2022/09/27 03:41:27;;;;;;;10.13;1.80;;;;;;;8.43;100.00;99606.66;5024075;28;20048;-71
2022/09/27 03:43:55;;;;;;;8.57;1.70;;;;;;;8.44;100.00;99619.94;5032428;28;20096;-69
2022/09/27 03:46:20;;;;;;;4.95;1.33;;;;;;;8.45;100.00;99620.72;5032307;28;20022;-72
2022/09/27 03:48:46;;;;;;;7.97;1.38;;;;;;;8.47;100.00;99624.84;5048097;28;20025;-70
2022/09/27 03:51:11;;;;;;;5.30;1.30;;;;;;;8.45;100.00;99624.25;5030719;28;20051;-71
2022/09/27 03:53:37;;;;;;;3.53;1.38;;;;;;;8.52;100.00;99626.81;5046624;28;20029;-71
2022/09/27 03:56:02;;;;;;;9.77;1.45;;;;;;;8.45;100.00;99636.91;5032185;28;20021;-73
2022/09/27 03:58:27;;;;;;;6.28;1.40;;;;;;;8.48;100.00;99644.50;5031623;28;20106;-71
2022/09/27 04:00:53;;;;;;;5.78;1.55;;;;;;;8.56;100.00;99654.09;5028725;28;20518;-71
2022/09/27 04:03:18;;;;;;;11.05;1.65;;;;;;;8.47;100.00;99659.03;5031941;28;20091;-73
2022/09/27 04:05:44;;;;;;;7.20;1.40;;;;;;;8.50;100.00;99663.97;5032527;28;20048;-73
2022/09/27 04:08:10;;;;;;;8.90;1.30;;;;;;;8.49;100.00;99665.84;5029863;28;20032;-70
2022/09/27 04:10:36;;;;;;;6.78;1.52;;;;;;;8.47;100.00;99661.75;5032087;28;20083;-71
2022/09/27 04:13:01;;;;;;;4.00;1.60;;;;;;;8.48;100.00;99658.00;5032194;28;20025;-74
2022/09/27 04:15:26;;;;;;;6.00;1.20;;;;;;;8.47;100.00;99656.34;5011802;28;20096;-74
2022/09/27 04:17:52;;;;;;;5.70;0.90;;;;;;;8.48;100.00;99652.59;5012763;28;20369;-72
2022/09/27 04:20:17;;;;;;;6.45;1.00;;;;;;;8.51;100.00;99646.72;5011221;28;20053;-73
2022/09/27 04:22:44;;;;;;;4.70;0.90;;;;;;;8.48;100.00;99647.22;5028443;28;20026;-73
2022/09/27 04:25:10;;;;;;;3.08;0.80;;;;;;;8.45;100.00;99637.72;5030340;28;20044;-75
2022/09/27 04:27:36;;;;;;;3.72;1.02;;;;;;;8.45;100.00;99632.31;5033165;28;20079;-72
2022/09/27 04:30:01;;;;;;;4.15;0.93;;;;;;;8.42;100.00;99629.28;5032504;28;20017;-72
2022/09/27 04:32:27;;;;;;;3.47;0.80;;;;;;;8.40;100.00;99628.72;5031921;28;20097;-72
2022/09/27 04:37:39;;;;;;;3.13;0.93;;;;;;;8.36;100.00;99622.97;5019483;28;20098;-72
2022/09/27 04:40:05;;;;;;;4.90;0.98;;;;;;;8.38;100.00;99626.25;5039811;28;20044;-72
2022/09/27 04:42:31;;;;;;;3.78;0.90;;;;;;;8.32;100.00;99622.63;5033701;28;20097;-76
2022/09/27 04:44:56;;;;;;;2.40;0.82;;;;;;;8.33;100.00;99626.13;5030813;28;20027;-72
2022/09/27 04:47:21;;;;;;;3.40;1.10;;;;;;;8.30;100.00;99626.63;5028429;28;20021;-71
2022/09/27 04:49:47;;;;;;;4.10;1.00;;;;;;;8.30;100.00;99627.47;5034930;28;20033;-74
2022/09/27 04:52:14;;;;;;;2.08;0.80;;;;;;;8.28;100.00;99626.06;5028543;28;20491;-73
2022/09/27 04:54:39;;;;;;;2.38;0.70;;;;;;;8.26;100.00;99623.59;5031285;28;20449;-71
2022/09/27 04:57:05;;;;;;;3.53;1.00;;;;;;;8.24;100.00;99636.47;5015418;28;20145;-70
2022/09/27 04:59:30;;;;;;;1.80;0.98;;;;;;;8.25;100.00;99640.81;5015633;28;20026;-74
2022/09/27 05:01:58;;;;;;;4.72;1.00;;;;;;;8.24;100.00;99647.25;5013448;28;20453;-73
2022/09/27 05:04:24;;;;;;;2.95;0.98;;;;;;;8.24;100.00;99668.81;5015560;28;20116;-73
2022/09/27 05:06:49;;;;;;;3.67;0.93;;;;;;;8.24;100.00;99668.00;5014679;28;20145;-74
2022/09/27 05:09:14;;;;;;;4.95;1.30;;;;;;;8.24;100.00;99671.50;5015517;28;20057;-72
2022/09/27 05:11:39;;;;;;;3.47;0.80;;;;;;;8.28;100.00;99667.28;5022077;28;20057;-73
2022/09/27 05:14:05;;;;;;;2.60;0.88;;;;;;;8.26;100.00;99658.63;5034474;28;20443;-71
2022/09/27 05:16:32;;;;;;;3.03;0.85;;;;;;;8.28;100.00;99661.09;5035330;28;20021;-74
2022/09/27 05:18:57;;;;;;;5.60;0.98;;;;;;;8.27;100.00;99654.88;5035216;28;20049;-72
2022/09/27 05:21:22;;;;;;;3.50;1.00;;;;;;;8.27;100.00;99665.66;5033564;28;20076;-73
2022/09/27 05:23:48;;;;;;;6.78;1.10;;;;;;;8.30;100.00;99669.75;5015393;28;20034;-73
2022/09/27 05:26:13;;;;;;;2.90;0.90;;;;;;;8.22;100.00;99660.16;5013929;28;20087;-73
2022/09/27 05:28:38;;;;;;;4.05;1.00;;;;;;;8.22;100.00;99657.47;5015193;28;20050;-74
2022/09/27 05:31:04;;;;;;;5.10;0.70;;;;;;;8.18;100.00;99659.00;5015200;28;20446;-73
2022/09/27 05:33:30;;;;;;;2.80;0.68;;;;;;;8.22;100.00;99659.34;5016252;28;20476;-73
2022/09/27 05:35:56;;;;;;;1.98;0.75;;;;;;;8.17;100.00;99665.47;5035099;28;20372;-73
2022/09/27 05:38:23;;;;;;;2.63;0.80;;;;;;;8.20;100.00;99666.84;5033509;28;20029;-73
2022/09/27 05:40:49;;;;;;;3.47;1.20;;;;;;;8.22;100.00;99665.56;5031509;28;20038;-74
2022/09/27 05:43:18;;;;;;;1.67;1.00;;;;;;;8.22;100.00;99662.03;5014725;28;20362;-76
2022/09/27 05:45:44;;;;;;;3.78;0.80;;;;;;;8.23;100.00;99661.81;5014800;28;20449;-72
2022/09/27 05:48:11;;;;;;;6.13;1.38;;;;;;;8.24;100.00;99668.00;5014549;28;20056;-73
2022/09/27 05:50:37;;;;;;;3.35;1.27;;;;;;;8.22;100.00;99662.84;5030199;28;20025;-73
2022/09/27 05:53:03;;;;;;;2.63;0.88;;;;;;;8.25;100.00;99667.75;5015224;28;20029;-75
2022/09/27 05:55:29;;;;;;;5.38;1.15;;;;;;;8.26;100.00;99672.09;5026077;28;20052;-75
2022/09/27 05:57:59;;;;;;;3.97;1.55;;;;;;;8.27;100.00;99678.31;5013413;28;20474;-73
2022/09/27 06:00:25;;;;;;;3.75;0.90;;;;;;;8.25;100.00;99673.16;5012521;28;20033;-72
2022/09/27 06:02:56;;;;;;;3.40;0.80;;;;;;;8.26;100.00;99671.31;5028574;28;20022;-72
2022/09/27 06:05:22;;;;;;;2.33;0.90;;;;;;;8.23;100.00;99677.97;5014501;28;20461;-73
2022/09/27 06:07:48;;;;;;;4.03;1.00;;;;;;;8.22;100.00;99670.13;5014680;28;20104;-73
2022/09/27 06:10:15;;;;;;;3.75;0.90;;;;;;;8.18;100.00;99677.84;5013465;28;20064;-74
2022/09/27 06:12:40;;;;;;;4.38;1.08;;;;;;;8.17;100.00;99673.53;5012682;28;20526;-72
2022/09/27 06:15:07;;;;;;;3.15;0.95;;;;;;;8.16;100.00;99663.81;5014113;28;20113;-74
2022/09/27 06:17:33;;;;;;;2.33;0.80;;;;;;;8.10;100.00;99673.66;5014253;28;20021;-77
2022/09/27 06:19:59;;;;;;;3.55;0.85;;;;;;;8.08;100.00;99673.09;5014264;28;21163;-73
2022/09/27 06:22:24;;;;;;;2.70;0.90;;;;;;;8.08;100.00;99669.59;5014063;28;20046;-75
2022/09/27 06:24:50;;;;;;;1.77;0.77;;;;;;;8.10;100.00;99679.03;5012776;28;20489;-72
2022/09/27 06:27:16;;;;;;;2.88;1.25;;;;;;;8.10;100.00;99668.25;5012222;28;20029;-71
2022/09/27 06:29:41;;;;;;;2.20;1.05;;;;;;;8.06;100.00;99668.97;5014455;28;20017;-74
2022/09/27 06:32:06;;;;;;;4.15;1.30;;;;;;;7.98;100.00;99665.59;5014198;28;20470;-75
2022/09/27 06:34:32;;;;;;;2.17;0.93;;;;;;;7.97;100.00;99672.06;5031335;28;20033;-75
2022/09/27 06:36:57;;;;;;;1.50;1.02;;;;;;;7.97;100.00;99668.53;5033939;28;20515;-72
2022/09/27 06:39:22;;;;;;;8.23;2.55;;;;;;;7.95;100.00;99670.66;5048759;28;20457;-74
2022/09/27 06:41:47;;;;;;;4.03;1.30;;;;;;;7.97;100.00;99676.59;5031173;28;20022;-75
2022/09/27 06:44:13;;;;;;;2.55;1.60;;;;;;;7.99;100.00;99671.81;5033536;28;20249;-73
2022/09/27 06:46:38;;;;;;;3.15;1.45;;;;;;;7.96;100.00;99675.78;5033842;28;20415;-72
2022/09/27 06:49:05;;;;;;;5.53;1.83;;;;;;;7.97;100.00;99671.22;5033775;28;20056;-72
2022/09/27 06:51:30;;;;;;;4.43;1.52;;;;;;;7.97;100.00;99673.91;5032145;28;20025;-72
2022/09/27 06:53:55;;;;;;;3.13;1.50;;;;;;;7.94;100.00;99660.91;5032373;28;20082;-73
2022/09/27 06:56:21;;;;;;;4.88;2.05;;;;;;;7.98;100.00;99668.28;5018461;28;20076;-76
2022/09/27 07:01:29;;;;;;;2.15;1.90;;;;;;;8.00;100.00;99668.03;5011071;28;20041;-72
2022/09/27 07:03:55;;;;;;;4.25;2.03;;;;;;;8.05;100.00;99675.44;5022654;28;20037;-75
2022/09/27 07:06:22;;;;;;;2.40;1.90;;;;;;;8.07;100.00;99684.91;5032974;28;20514;-73
2022/09/27 07:08:52;;;;;;;4.90;2.28;;;;;;;8.08;100.00;99670.38;5032157;28;20368;-77
2022/09/27 07:11:18;;;;;;;5.88;2.17;;;;;;;8.10;100.00;99683.63;5020966;28;20436;-75
2022/09/27 07:13:43;;;;;;;7.40;2.53;;;;;;;8.13;100.00;99686.66;5013623;28;20029;-72
2022/09/27 07:16:13;;;;;;;3.30;2.20;;;;;;;8.19;100.00;99681.38;5013734;28;20121;-74
2022/09/27 07:18:39;;;;;;;4.90;2.10;;;;;;;8.22;100.00;99683.59;5012205;28;20088;-73
2022/09/27 07:21:05;;;;;;;4.20;1.90;;;;;;;8.19;100.00;99684.91;5013431;28;20073;-72
2022/09/27 07:23:30;;;;;;;4.82;2.00;;;;;;;8.22;100.00;99684.41;5012987;28;20104;-75
2022/09/27 07:26:03;;;;;;;4.65;2.13;;;;;;;8.27;100.00;99686.41;5012744;28;20072;-70
2022/09/27 07:28:28;;;;;;;4.43;2.10;;;;;;;8.24;100.00;99689.56;5011659;28;20056;-73
2022/09/27 07:30:55;;;;;;;4.05;1.83;;;;;;;8.25;100.00;99691.22;5013469;28;20026;-72
2022/09/27 07:33:20;;;;;;;5.80;2.30;;;;;;;8.28;100.00;99690.72;5012938;28;20024;-72
2022/09/27 07:35:45;;;;;;;4.03;2.30;;;;;;;8.27;100.00;99689.94;5028388;28;20117;-73
2022/09/27 07:38:15;;;;;;;4.85;2.22;;;;;;;8.30;100.00;99694.00;5017008;28;20031;-75
2022/09/27 07:40:41;;;;;;;6.35;2.70;;;;;;;8.33;100.00;99696.22;5030207;28;20037;-75
2022/09/27 07:43:08;;;;;;;4.05;2.58;;;;;;;8.34;100.00;99695.97;5032735;28;20021;-72
2022/09/27 07:45:34;;;;;;;4.80;2.83;;;;;;;8.33;100.00;99688.13;5031108;28;20029;-74
2022/09/27 07:47:59;;;;;;;5.13;3.00;;;;;;;8.31;100.00;99693.75;5021364;28;20092;-72
2022/09/27 07:50:25;;;;;;;6.10;3.33;;;;;;;8.30;100.00;99692.16;5012587;28;20132;-72
2022/09/27 07:52:50;;;;;;;7.63;3.53;;;;;;;8.30;100.00;99699.38;5012988;28;20024;-72
2022/09/27 07:55:17;;;;;;;10.32;4.03;;;;;;;8.32;100.00;99695.41;5013146;28;20030;-74
2022/09/27 07:57:44;;;;;;;5.13;3.58;;;;;;;8.33;100.00;99704.31;5014206;28;20048;-74
2022/09/27 08:00:13;;;;;;;4.07;3.67;;;;;;;8.38;100.00;99711.69;5033461;28;20028;-72
2022/09/27 08:02:42;;;;;;;7.28;4.03;;;;;;;8.37;100.00;99704.66;5029251;28;20025;-72
2022/09/27 08:05:09;;;;;;;7.72;4.38;;;;;;;8.39;100.00;99713.31;5027693;28;20385;-74
2022/09/27 08:07:35;;;;;;;4.70;4.30;;;;;;;8.37;100.00;99712.75;5025840;28;20033;-75
2022/09/27 08:10:00;;;;;;;6.22;4.68;;;;;;;8.40;100.00;99717.66;5032597;28;20021;-75
2022/09/27 08:12:25;;;;;;;6.82;4.50;;;;;;;8.42;100.00;99719.03;5032816;28;20227;-73
2022/09/27 08:14:51;;;;;;;7.63;4.75;;;;;;;8.46;100.00;99724.81;5041728;28;20026;-70
2022/09/27 08:17:18;;;;;;;7.03;4.63;;;;;;;8.49;100.00;99727.03;5042641;28;20021;-70
2022/09/27 08:19:44;;;;;;;8.05;4.70;;;;;;;8.51;100.00;99724.91;5030780;28;20046;-71
2022/09/27 08:22:12;;;;;;;9.68;5.18;;;;;;;8.54;100.00;99726.31;5024117;28;20081;-75
2022/09/27 08:24:38;;;;;;;7.60;5.00;;;;;;;8.53;100.00;99722.81;5014105;28;20013;-73
2022/09/27 08:27:04;;;;;;;8.82;5.35;;;;;;;8.56;100.00;99719.66;5016571;28;20109;-72
2022/09/27 08:29:30;;;;;;;8.00;6.10;;;;;;;8.58;100.00;99716.72;5025201;28;20026;-72
2022/09/27 08:31:55;;;;;;;7.63;6.30;;;;;;;8.61;100.00;99722.44;5036201;28;20087;-71
2022/09/27 08:34:21;;;;;;;9.05;6.55;;;;;;;8.62;100.00;99724.06;5035970;28;20036;-75
2022/09/27 08:36:47;;;;;;;8.15;6.97;;;;;;;8.62;100.00;99718.69;5033401;28;20060;-72
2022/09/27 08:39:13;;;;;;;9.65;7.22;;;;;;;8.64;100.00;99713.84;5036153;28;20061;-72
2022/09/27 08:42:00;;;;;;;8.77;7.07;;;;;;;8.66;100.00;99711.72;5035559;28;20018;-73
2022/09/27 08:45:03;;;;;;;9.50;7.63;;;;;;;8.73;100.00;99718.88;5031684;28;20109;-72
2022/09/27 08:47:36;;;;;;;11.20;8.02;;;;;;;8.73;100.00;99717.00;5015714;28;20036;-74
2022/09/27 08:50:07;;;;;;;10.95;8.95;;;;;;;8.75;100.00;99714.88;5016209;28;20109;-73
2022/09/27 08:52:42;;;;;;;11.88;9.55;;;;;;;8.81;100.00;99722.00;5033723;28;20109;-73
2022/09/27 08:55:36;;;;;;;11.02;9.60;;;;;;;8.85;100.00;99725.84;5015717;28;20479;-75
2022/09/27 08:58:10;;;;;;;12.07;9.65;;;;;;;8.82;100.00;99722.84;5031175;28;20365;-74
2022/09/27 09:00:35;;;;;;;12.20;9.55;;;;;;;8.87;100.00;99721.03;5013120;28;20068;-73
2022/09/27 09:03:01;;;;;;;18.05;10.65;;;;;;;8.89;100.00;99718.09;5016515;28;20112;-72
2022/09/27 09:05:37;;;;;;;11.60;10.27;;;;;;;8.90;100.00;99718.94;5015263;28;20360;-74
2022/09/27 09:08:14;;;;;;;12.90;10.82;;;;;;;8.92;100.00;99716.78;5015773;28;20029;-74
2022/09/27 09:13:57;;;;;;;12.50;10.48;;;;;;;8.92;100.00;99728.41;5020017;28;20592;-75
2022/09/27 09:16:34;;;;;;;12.27;10.15;;;;;;;8.95;100.00;99727.94;5019947;28;20038;-73
2022/09/27 09:19:05;;;;;;;11.43;9.85;;;;;;;8.97;100.00;99738.50;5015662;28;20454;-73
2022/09/27 09:21:40;;;;;;;13.00;10.60;;;;;;;9.01;100.00;99731.53;5025156;28;20388;-73
2022/09/27 09:24:16;;;;;;;12.00;9.38;;;;;;;9.05;100.00;99743.47;5017286;28;20033;-73
2022/09/27 09:26:54;;;;;;;14.20;10.45;;;;;;;9.08;100.00;99740.31;5029715;28;20044;-75
2022/09/27 09:29:30;;;;;;;14.82;11.25;;;;;;;9.10;100.00;99735.47;5024480;28;20084;-75
2022/09/27 09:32:21;;;;;;;15.73;11.27;;;;;;;9.10;100.00;99735.47;5026039;28;20030;-74
2022/09/27 09:34:52;;;;;;;14.80;12.00;;;;;;;9.11;100.00;99744.41;5032872;28;20087;-74
2022/09/27 09:37:45;;;;;;;16.42;12.52;;;;;;;9.17;100.00;99738.84;5018304;28;20211;-74
2022/09/27 09:40:20;;;;;;;17.65;13.20;;;;;;;9.15;100.00;99743.69;5014981;28;20100;-72
2022/09/27 09:42:56;;;;;;;17.95;13.38;;;;;;;9.14;100.00;99735.81;5015608;28;20053;-73
2022/09/27 09:45:23;;;;;;;18.77;13.50;;;;;;;9.12;100.00;99744.16;5019650;28;20021;-75
2022/09/27 09:48:24;;;;;;;17.15;13.52;;;;;;;9.17;100.00;99741.53;5021588;28;20068;-73
2022/09/27 09:50:54;;;;;;;12.88;11.00;;;;;;;9.07;100.00;99745.94;5008050;28;20045;-72
2022/09/27 09:53:21;;;;;;;14.02;10.50;;;;;;;9.08;100.00;99744.88;5013681;28;20030;-73
2022/09/27 09:56:20;;;;;;;10.52;9.43;;;;;;;9.05;100.00;99747.00;5013771;28;20057;-73
2022/09/27 09:59:09;;;;;;;9.40;8.40;;;;;;;9.05;100.00;99751.59;5021226;28;20045;-74
2022/09/27 10:01:40;;;;;;;9.20;7.15;;;;;;;9.00;100.00;99746.91;5031954;28;20032;-74
2022/09/27 10:04:06;;;;;;;8.17;6.50;;;;;;;9.00;100.00;99746.09;5030236;28;20187;-71
2022/09/27 10:06:31;;;;;;;7.80;6.45;;;;;;;9.02;100.00;99750.19;5032804;28;20055;-72
2022/09/27 10:08:58;;;;;;;6.40;5.00;;;;;;;9.02;100.00;99749.38;5034533;28;20026;-73
2022/09/27 10:11:44;;;;;;;5.85;4.90;;;;;;;9.01;100.00;99753.13;5034137;28;20498;-75
2022/09/27 10:14:12;;;;;;;8.32;4.15;;;;;;;8.96;100.00;99745.75;5034284;28;20014;-76
2022/09/27 10:16:41;;;;;;;3.38;2.30;;;;;;;9.00;100.00;99746.91;5034243;28;20022;-73
2022/09/27 10:19:08;;;;;;;6.07;2.67;;;;;;;8.89;100.00;99753.16;5028367;28;20045;-73
2022/09/27 10:21:39;;;;;;;4.53;2.10;;;;;;;8.79;100.00;99737.63;5013892;28;20100;-74
2022/09/27 10:24:14;;;;;;;6.10;2.42;;;;;;;8.76;100.00;99750.78;5014367;28;20041;-75
2022/09/27 10:26:42;;;;;;;6.07;2.10;;;;;;;8.73;100.00;99753.94;5015810;28;20072;-71
2022/09/27 10:29:13;;;;;;;2.63;1.30;;;;;;;8.70;100.00;99757.94;5037386;28;20041;-72
2022/09/27 10:31:43;;;;;;;3.55;1.27;;;;;;;8.78;100.00;99765.63;5015925;28;20064;-74
2022/09/27 10:34:17;;;;;;;2.38;1.40;;;;;;;8.59;100.00;99761.47;5013076;28;20079;-71
2022/09/27 10:36:43;;;;;;;4.55;1.02;;;;;;;8.52;100.00;99762.44;5013872;28;20444;-74
2022/09/27 10:39:20;;;;;;;4.03;1.20;;;;;;;8.57;100.00;99764.41;5014093;28;20033;-70
2022/09/27 10:41:46;;;;;;;5.90;1.20;;;;;;;8.54;100.00;99759.50;5013707;28;20030;-71
2022/09/27 10:44:14;;;;;;;3.78;0.90;;;;;;;8.54;100.00;99762.19;5013122;28;20025;-73
2022/09/27 10:46:41;;;;;;;4.05;0.95;;;;;;;8.51;100.00;99766.19;5027188;28;20090;-73
2022/09/27 10:49:28;;;;;;;1.75;0.98;;;;;;;8.57;100.00;99763.59;5032422;28;20520;-71
2022/09/27 10:51:59;;;;;;;3.95;1.45;;;;;;;8.56;100.00;99764.66;5025546;28;20041;-74
2022/09/27 10:54:31;;;;;;;7.25;1.50;;;;;;;8.58;100.00;99767.94;5035833;28;20025;-70
2022/09/27 10:57:03;;;;;;;3.13;1.23;;;;;;;8.62;100.00;99759.13;5013595;28;20473;-70
2022/09/27 10:59:32;;;;;;;2.45;1.10;;;;;;;8.67;100.00;99764.63;5016058;28;20021;-71
2022/09/27 11:01:58;;;;;;;2.95;1.60;;;;;;;8.71;100.00;99764.97;5011367;28;20024;-74
2022/09/27 11:04:27;;;;;;;2.80;1.40;;;;;;;8.74;100.00;99771.75;5013521;28;20109;-71
2022/09/27 11:07:13;;;;;;;2.63;1.50;;;;;;;8.76;100.00;99758.88;5013813;28;20026;-75
2022/09/27 11:09:53;;;;;;;1.77;0.82;;;;;;;8.72;100.00;99755.81;5013596;28;20022;-74
2022/09/27 11:12:21;;;;;;;1.10;0.80;;;;;;;8.71;100.00;99758.75;5016295;28;20082;-72
2022/09/27 11:14:57;;;;;;;3.22;0.85;;;;;;;8.73;100.00;99751.25;5031930;28;20040;-75
2022/09/27 11:17:49;;;;;;;1.38;0.75;;;;;;;8.75;100.00;99749.13;5031649;28;20076;-76
2022/09/27 11:20:26;;;;;;;1.90;0.80;;;;;;;8.80;100.00;99735.72;5029505;28;20049;-75
2022/09/27 11:23:10;;;;;;;3.33;0.70;;;;;;;8.90;100.00;99735.13;5032053;28;20104;-76
2022/09/27 11:26:04;;;;;;;2.50;0.80;;;;;;;9.03;100.00;99734.81;5033215;28;20052;-75
2022/09/27 11:28:56;;;;;;;0.70;0.60;;;;;;;9.10;100.00;99737.34;5024677;28;20139;-76
2022/09/27 11:31:46;;;;;;;2.85;0.90;;;;;;;9.15;100.00;99726.63;5012496;28;20022;-75
2022/09/27 11:34:45;;;;;;;1.88;0.93;;;;;;;9.26;100.00;99733.06;5028339;28;20025;-72
2022/09/27 11:37:30;;;;;;;2.25;0.70;;;;;;;9.28;100.00;99731.72;5033584;28;20029;-72
2022/09/27 11:40:14;;;;;;;3.20;0.63;;;;;;;9.35;100.00;99724.31;5016357;28;20117;-71
2022/09/27 11:42:42;;;;;;;3.15;0.95;;;;;;;9.45;100.00;99730.94;5023136;28;20041;-69
2022/09/27 11:45:32;;;;;;;2.40;0.70;;;;;;;9.56;100.00;99732.75;5030748;28;20477;-72
2022/09/27 11:48:19;;;;;;;2.47;1.15;;;;;;;9.61;100.00;99729.31;5031788;28;20032;-72
2022/09/27 11:51:10;;;;;;;1.60;0.98;;;;;;;9.70;100.00;99731.34;5018452;28;20045;-71
2022/09/27 11:53:55;;;;;;;3.38;1.00;;;;;;;9.71;100.00;99735.69;5036659;28;20053;-70
2022/09/27 11:56:58;;;;;;;1.65;0.60;;;;;;;9.74;100.00;99729.78;5019753;28;20457;-71
2022/09/27 11:59:52;;;;;;;1.67;0.80;;;;;;;9.75;100.00;99731.44;5030786;28;20025;-70